Time;durP1;ratioP1;P1;durP2;ratioP2;P2;SDS_P1;SDS_P2;PMS_P1;PMS_P2;Temp;Humidity;BMP_temperature;BMP_pressure;BME280_temperature;BME280_humidity;BME280_pressure;Samples;Min_cycle;Max_cycle;Signal;HPM_P1;HPM_P2
2024/01/23 00:00:49;;;;;;;;;;;;;;;;;;5108007;28;19920;-66
2024/01/23 00:03:16;;;;;;;;;;;;;;;;;;5111210;28;19924;-66
2024/01/23 00:05:42;;;;;;;;;;;;;;;;;;5110537;28;19927;-66
2024/01/23 00:08:08;;;;;;;;;;;;;;;;;;5115422;28;20026;-67
2024/01/23 00:10:33;;;;;;;;;;;;;;;;;;5131330;27;19928;-66
2024/01/23 00:12:59;;;;;;;;;;;;;;;;;;5111685;28;19928;-67
2024/01/23 00:15:26;;;;;;;;;;;;;;;;;;5130996;27;21158;-65
2024/01/23 00:17:52;;;;;;;;;;;;;;;;;;5109951;28;19967;-66
2024/01/23 00:20:18;;;;;;;;;;;;;;;;;;5104623;28;19981;-66
2024/01/23 00:22:44;;;;;;;;;;;;;;;;;;5136626;27;20436;-66
2024/01/23 00:25:10;;;;;;;;;;;;;;;;;;5107054;28;20022;-66
2024/01/23 00:27:36;;;;;;;;;;;;;;;;;;5106587;28;19963;-66
2024/01/23 00:30:02;;;;;;;;;;;;;;;;;;5119517;27;19970;-65
2024/01/23 00:32:30;;;;;;;;;;;;;;;;;;5109670;27;19919;-66
2024/01/23 00:34:57;;;;;;;;;;;;;;;;;;5106458;27;19938;-66
2024/01/23 00:37:22;;;;;;;;;;;;;;;;;;5103345;28;19923;-66
2024/01/23 00:39:50;;;;;;;;;;;;;;;;;;5109972;27;19942;-67
2024/01/23 00:42:16;;;;;;;;;;;;;;;;;;5118573;27;19920;-66
2024/01/23 00:44:42;;;;;;;;;;;;;;;;;;5114093;27;20331;-66
2024/01/23 00:47:08;;;;;;;;;;;;;;;;;;5108085;28;19920;-67
2024/01/23 00:49:34;;;;;;;;;;;;;;;;;;5118688;27;19928;-66
2024/01/23 00:52:00;;;;;;;;;;;;;;;;;;5108827;27;19923;-66
2024/01/23 00:54:26;;;;;;;;;;;;;;;;;;5117355;27;20300;-66
2024/01/23 00:56:52;;;;;;;;;;;;;;;;;;5112527;27;20613;-66
2024/01/23 00:59:19;;;;;;;;;;;;;;;;;;5115708;27;19934;-66
2024/01/23 01:01:45;;;;;;;;;;;;;;;;;;5135728;27;19927;-66
2024/01/23 01:04:11;;;;;;;;;;;;;;;;;;5120969;27;19924;-66
2024/01/23 01:06:37;;;;;;;;;;;;;;;;;;5105603;27;19931;-66
2024/01/23 01:09:03;;;;;;;;;;;;;;;;;;5108492;27;19926;-66
2024/01/23 01:11:29;;;;;;;;;;;;;;;;;;5113740;27;20383;-66
2024/01/23 01:13:55;;;;;;;;;;;;;;;;;;5102694;28;19963;-66
2024/01/23 01:16:21;;;;;;;;;;;;;;;;;;5124202;27;20022;-67
2024/01/23 01:18:47;;;;;;;;;;;;;;;;;;5106407;27;20338;-66
2024/01/23 01:21:13;;;;;;;;;;;;;;;;;;5104458;27;20311;-66
2024/01/23 01:23:39;;;;;;;;;;;;;;;;;;5110574;27;20269;-66
2024/01/23 01:26:05;;;;;;;;;;;;;;;;;;5113298;27;20339;-66
2024/01/23 01:28:31;;;;;;;;;;;;;;;;;;5106585;27;19927;-67
2024/01/23 01:30:56;;;;;;;;;;;;;;;;;;5110086;27;19924;-66
2024/01/23 01:33:22;;;;;;;;;;;;;;;;;;5104380;28;19924;-66
2024/01/23 01:35:51;;;;;;;;;;;;;;;;;;5115606;27;19920;-66
2024/01/23 01:38:17;;;;;;;;;;;;;;;;;;5119107;27;19920;-66
2024/01/23 01:40:43;;;;;;;;;;;;;;;;;;5112525;27;19969;-66
2024/01/23 01:43:09;;;;;;;;;;;;;;;;;;5133398;27;19919;-66
2024/01/23 01:45:35;;;;;;;;;;;;;;;;;;5108268;28;20338;-65
2024/01/23 01:48:01;;;;;;;;;;;;;;;;;;5120474;27;20296;-65
2024/01/23 01:50:27;;;;;;;;;;;;;;;;;;5082701;28;19935;-65
2024/01/23 01:52:53;;;;;;;;;;;;;;;;;;5101313;27;20811;-65
2024/01/23 01:55:18;;;;;;;;;;;;;;;;;;5103821;27;19974;-65
2024/01/23 01:57:44;;;;;;;;;;;;;;;;;;5107516;27;20006;-65
2024/01/23 02:00:10;;;;;;;;;;;;;;;;;;5112252;27;20022;-65
2024/01/23 02:02:40;;;;;;;;;;;;;;;;;;5103300;28;20322;-65
2024/01/23 02:05:06;;;;;;;;;;;;;;;;;;5116634;27;19919;-67
2024/01/23 02:07:33;;;;;;;;;;;;;;;;;;5104737;28;19926;-67
2024/01/23 02:10:00;;;;;;;;;;;;;;;;;;5116742;27;19920;-66
2024/01/23 02:12:25;;;;;;;;;;;;;;;;;;5097937;27;20280;-67
2024/01/23 02:14:51;;;;;;;;;;;;;;;;;;5132453;27;19924;-66
2024/01/23 02:17:17;;;;;;;;;;;;;;;;;;5099764;27;19920;-67
2024/01/23 02:19:43;;;;;;;;;;;;;;;;;;5110677;27;19920;-66
2024/01/23 02:22:09;;;;;;;;;;;;;;;;;;5108559;27;19923;-66
2024/01/23 02:24:35;;;;;;;;;;;;;;;;;;5115884;27;19920;-66
2024/01/23 02:27:01;;;;;;;;;;;;;;;;;;5101483;27;20319;-66
2024/01/23 02:29:28;;;;;;;;;;;;;;;;;;5104823;27;20870;-67
2024/01/23 02:31:54;;;;;;;;;;;;;;;;;;5105286;27;19972;-66
2024/01/23 02:34:21;;;;;;;;;;;;;;;;;;5108926;27;20390;-66
2024/01/23 02:36:47;;;;;;;;;;;;;;;;;;5106485;28;19919;-67
2024/01/23 02:39:13;;;;;;;;;;;;;;;;;;5116643;27;20280;-66
2024/01/23 02:41:39;;;;;;;;;;;;;;;;;;5120184;27;21731;-66
2024/01/23 02:44:05;;;;;;;;;;;;;;;;;;5110706;27;19919;-66
2024/01/23 02:46:31;;;;;;;;;;;;;;;;;;5120122;27;19923;-66
2024/01/23 02:48:57;;;;;;;;;;;;;;;;;;5104744;27;19924;-66
2024/01/23 02:51:23;;;;;;;;;;;;;;;;;;5095577;27;19924;-66
2024/01/23 02:53:49;;;;;;;;;;;;;;;;;;5109056;27;20429;-66
2024/01/23 02:56:15;;;;;;;;;;;;;;;;;;5118101;27;20034;-66
2024/01/23 02:58:40;;;;;;;;;;;;;;;;;;5109062;27;20081;-66
2024/01/23 03:01:06;;;;;;;;;;;;;;;;;;5111182;27;19977;-67
2024/01/23 03:03:32;;;;;;;;;;;;;;;;;;5113288;27;19985;-66
2024/01/23 03:05:58;;;;;;;;;;;;;;;;;;5104630;28;20381;-65
2024/01/23 03:08:24;;;;;;;;;;;;;;;;;;5127924;27;19959;-66
2024/01/23 03:10:50;;;;;;;;;;;;;;;;;;5118506;27;19928;-66
2024/01/23 03:13:18;;;;;;;;;;;;;;;;;;5142317;27;19930;-66
2024/01/23 03:15:44;;;;;;;;;;;;;;;;;;5106014;27;19924;-65
2024/01/23 03:18:10;;;;;;;;;;;;;;;;;;5102785;27;20876;-66
2024/01/23 03:20:37;;;;;;;;;;;;;;;;;;5106983;27;19920;-66
2024/01/23 03:23:03;;;;;;;;;;;;;;;;;;5106554;28;19919;-66
2024/01/23 03:25:29;;;;;;;;;;;;;;;;;;5096057;27;20284;-66
2024/01/23 03:27:55;;;;;;;;;;;;;;;;;;5109321;28;19927;-66
2024/01/23 03:30:21;;;;;;;;;;;;;;;;;;5107463;27;19957;-67
2024/01/23 03:32:47;;;;;;;;;;;;;;;;;;5105713;28;19930;-65
2024/01/23 03:35:13;;;;;;;;;;;;;;;;;;5106136;27;19919;-65
2024/01/23 03:37:39;;;;;;;;;;;;;;;;;;5093634;28;19923;-66
2024/01/23 03:40:05;;;;;;;;;;;;;;;;;;5113029;28;19927;-65
2024/01/23 03:42:31;;;;;;;;;;;;;;;;;;5114285;28;19955;-65
2024/01/23 03:44:57;;;;;;;;;;;;;;;;;;5110590;28;20355;-67
2024/01/23 03:47:23;;;;;;;;;;;;;;;;;;5098757;28;20015;-67
2024/01/23 03:49:49;;;;;;;;;;;;;;;;;;5109863;28;20006;-66
2024/01/23 03:52:16;;;;;;;;;;;;;;;;;;5093887;28;19920;-66
2024/01/23 03:54:42;;;;;;;;;;;;;;;;;;5105395;28;20479;-67
2024/01/23 03:57:08;;;;;;;;;;;;;;;;;;5121648;28;19998;-66
2024/01/23 03:59:34;;;;;;;;;;;;;;;;;;5115536;28;20014;-67
2024/01/23 04:02:00;;;;;;;;;;;;;;;;;;5107323;27;19928;-66
2024/01/23 04:04:26;;;;;;;;;;;;;;;;;;5114536;27;19920;-66
2024/01/23 04:06:52;;;;;;;;;;;;;;;;;;5111792;27;19920;-66
2024/01/23 04:09:18;;;;;;;;;;;;;;;;;;5137840;27;19923;-66
2024/01/23 04:11:44;;;;;;;;;;;;;;;;;;5109006;27;19926;-66
2024/01/23 04:14:10;;;;;;;;;;;;;;;;;;5136415;27;20388;-67
2024/01/23 04:16:36;;;;;;;;;;;;;;;;;;5103019;27;19920;-65
2024/01/23 04:19:02;;;;;;;;;;;;;;;;;;5110126;27;19934;-65
2024/01/23 04:21:28;;;;;;;;;;;;;;;;;;5111242;27;20002;-65
2024/01/23 04:23:54;;;;;;;;;;;;;;;;;;5116924;27;19919;-65
2024/01/23 04:26:20;;;;;;;;;;;;;;;;;;5106861;27;20023;-66
2024/01/23 04:28:48;;;;;;;;;;;;;;;;;;5121230;27;19999;-66
2024/01/23 04:31:13;;;;;;;;;;;;;;;;;;5120071;27;19923;-67
2024/01/23 04:33:39;;;;;;;;;;;;;;;;;;5110333;27;19930;-65
2024/01/23 04:36:05;;;;;;;;;;;;;;;;;;5104153;27;19927;-65
2024/01/23 04:38:31;;;;;;;;;;;;;;;;;;5112855;27;19926;-65
2024/01/23 04:40:57;;;;;;;;;;;;;;;;;;5085846;28;20324;-66
2024/01/23 04:43:23;;;;;;;;;;;;;;;;;;5115615;27;19927;-66
2024/01/23 04:45:49;;;;;;;;;;;;;;;;;;5115552;27;19927;-66
2024/01/23 04:48:15;;;;;;;;;;;;;;;;;;5150846;27;19920;-66
2024/01/23 04:50:41;;;;;;;;;;;;;;;;;;5116916;27;19946;-66
2024/01/23 04:53:07;;;;;;;;;;;;;;;;;;5109786;27;20332;-66
2024/01/23 04:55:34;;;;;;;;;;;;;;;;;;5107097;28;20262;-66
2024/01/23 04:58:00;;;;;;;;;;;;;;;;;;5114658;27;19931;-66
2024/01/23 05:00:26;;;;;;;;;;;;;;;;;;5115854;27;21198;-66
2024/01/23 05:02:52;;;;;;;;;;;;;;;;;;5114535;27;20426;-64
2024/01/23 05:05:18;;;;;;;;;;;;;;;;;;5116203;27;19927;-65
2024/01/23 05:07:44;;;;;;;;;;;;;;;;;;5089301;27;19924;-65
2024/01/23 05:10:10;;;;;;;;;;;;;;;;;;5108798;27;19923;-66
2024/01/23 05:12:36;;;;;;;;;;;;;;;;;;5110460;27;20438;-65
2024/01/23 05:15:03;;;;;;;;;;;;;;;;;;5113216;27;19923;-64
2024/01/23 05:17:29;;;;;;;;;;;;;;;;;;5119120;27;19935;-66
2024/01/23 05:19:55;;;;;;;;;;;;;;;;;;5104545;27;19923;-66
2024/01/23 05:22:21;;;;;;;;;;;;;;;;;;5102101;28;20011;-66
2024/01/23 05:24:47;;;;;;;;;;;;;;;;;;5111913;28;20394;-67
2024/01/23 05:27:13;;;;;;;;;;;;;;;;;;5102134;27;19924;-66
2024/01/23 05:29:39;;;;;;;;;;;;;;;;;;5110842;28;19923;-65
2024/01/23 05:32:05;;;;;;;;;;;;;;;;;;5111731;28;19930;-66
2024/01/23 05:34:31;;;;;;;;;;;;;;;;;;5105955;28;20380;-65
2024/01/23 05:36:57;;;;;;;;;;;;;;;;;;5107326;27;19924;-65
2024/01/23 05:39:24;;;;;;;;;;;;;;;;;;5107107;27;20353;-66
2024/01/23 05:41:50;;;;;;;;;;;;;;;;;;5101167;27;19923;-66
2024/01/23 05:44:16;;;;;;;;;;;;;;;;;;5114755;27;19968;-65
2024/01/23 05:46:42;;;;;;;;;;;;;;;;;;5112968;27;20473;-66
2024/01/23 05:49:08;;;;;;;;;;;;;;;;;;5111617;27;19930;-65
2024/01/23 05:51:33;;;;;;;;;;;;;;;;;;5111155;27;20023;-65
2024/01/23 05:53:59;;;;;;;;;;;;;;;;;;5115066;27;20563;-65
2024/01/23 05:56:25;;;;;;;;;;;;;;;;;;5115485;27;19963;-65
2024/01/23 05:58:51;;;;;;;;;;;;;;;;;;5114903;27;19923;-65
2024/01/23 06:01:17;;;;;;;;;;;;;;;;;;5105407;27;20687;-65
2024/01/23 06:03:43;;;;;;;;;;;;;;;;;;5114246;27;19924;-65
2024/01/23 06:06:09;;;;;;;;;;;;;;;;;;5112406;27;21110;-66
2024/01/23 06:08:35;;;;;;;;;;;;;;;;;;5110680;27;19919;-65
2024/01/23 06:11:01;;;;;;;;;;;;;;;;;;5104552;27;19924;-66
2024/01/23 06:13:27;;;;;;;;;;;;;;;;;;5109629;27;19924;-65
2024/01/23 06:15:53;;;;;;;;;;;;;;;;;;5110326;27;20017;-66
2024/01/23 06:18:18;;;;;;;;;;;;;;;;;;5105673;27;19924;-67
2024/01/23 06:20:44;;;;;;;;;;;;;;;;;;5128271;27;19924;-66
2024/01/23 06:23:10;;;;;;;;;;;;;;;;;;5099128;27;19943;-66
2024/01/23 06:25:36;;;;;;;;;;;;;;;;;;5101679;27;19920;-66
2024/01/23 06:28:02;;;;;;;;;;;;;;;;;;5111404;27;19964;-66
2024/01/23 06:30:29;;;;;;;;;;;;;;;;;;5119608;27;20027;-66
2024/01/23 06:32:55;;;;;;;;;;;;;;;;;;5105330;27;20451;-66
2024/01/23 06:35:21;;;;;;;;;;;;;;;;;;5098576;28;20011;-64
2024/01/23 06:37:47;;;;;;;;;;;;;;;;;;5107382;27;20030;-66
2024/01/23 06:40:13;;;;;;;;;;;;;;;;;;5110542;27;20010;-66
2024/01/23 06:42:39;;;;;;;;;;;;;;;;;;5108777;28;20010;-67
2024/01/23 06:45:04;;;;;;;;;;;;;;;;;;5109266;27;20702;-64
2024/01/23 06:47:38;;;;;;;;;;;;;;;;;;5063418;28;19917;-66
2024/01/23 06:50:03;;;;;;;;;;;;;;;;;;5078212;28;19943;-66
2024/01/23 06:52:29;;;;;;;;;;;;;;;;;;5068384;28;20390;-65
2024/01/23 06:54:55;;;;;;;;;;;;;;;;;;5064127;28;20017;-65
2024/01/23 06:57:21;;;;;;;;;;;;;;;;;;5068238;28;20015;-65
2024/01/23 06:59:47;;;;;;;;;;;;;;;;;;5066674;28;20015;-65
2024/01/23 07:02:13;;;;;;;;;;;;;;;;;;5061797;28;19920;-66
2024/01/23 07:04:40;;;;;;;;;;;;;;;;;;5067573;28;19924;-66
2024/01/23 07:07:06;;;;;;;;;;;;;;;;;;5067698;28;19925;-65
2024/01/23 07:09:31;;;;;;;;;;;;;;;;;;5066701;28;19921;-65
2024/01/23 07:11:57;;;;;;;;;;;;;;;;;;5068123;28;19974;-65
2024/01/23 07:14:23;;;;;;;;;;;;;;;;;;5066635;28;19925;-65
2024/01/23 07:16:49;;;;;;;;;;;;;;;;;;5064557;28;20020;-65
2024/01/23 07:19:15;;;;;;;;;;;;;;;;;;5065662;28;20007;-64
2024/01/23 07:21:41;;;;;;;;;;;;;;;;;;5066688;28;19928;-66
2024/01/23 07:24:07;;;;;;;;;;;;;;;;;;5067869;28;19928;-65
2024/01/23 07:26:33;;;;;;;;;;;;;;;;;;5067557;28;19925;-65
2024/01/23 07:28:59;;;;;;;;;;;;;;;;;;5067675;28;20001;-65
2024/01/23 07:31:25;;;;;;;;;;;;;;;;;;5063287;28;19936;-65
2024/01/23 07:33:51;;;;;;;;;;;;;;;;;;5063586;28;20363;-65
2024/01/23 07:36:17;;;;;;;;;;;;;;;;;;5066929;28;19932;-65
2024/01/23 07:38:43;;;;;;;;;;;;;;;;;;5067357;28;19928;-65
2024/01/23 07:41:09;;;;;;;;;;;;;;;;;;5063934;28;19924;-66
2024/01/23 07:43:35;;;;;;;;;;;;;;;;;;5067364;28;19920;-66
2024/01/23 07:46:01;;;;;;;;;;;;;;;;;;5065314;28;19932;-66
2024/01/23 07:48:27;;;;;;;;;;;;;;;;;;5082835;28;19936;-67
2024/01/23 07:50:53;;;;;;;;;;;;;;;;;;5060061;28;19920;-66
2024/01/23 07:53:19;;;;;;;;;;;;;;;;;;5068426;28;19943;-66
2024/01/23 07:55:45;;;;;;;;;;;;;;;;;;5079972;28;19988;-66
2024/01/23 07:58:12;;;;;;;;;;;;;;;;;;5064937;28;20344;-66
2024/01/23 08:00:38;;;;;;;;;;;;;;;;;;5060676;28;19928;-66
2024/01/23 08:03:04;;;;;;;;;;;;;;;;;;5042715;28;19969;-66
2024/01/23 08:05:30;;;;;;;;;;;;;;;;;;5065987;28;20431;-66
2024/01/23 08:07:56;;;;;;;;;;;;;;;;;;5066019;28;19920;-66
2024/01/23 08:10:24;;;;;;;;;;;;;;;;;;5072460;28;20306;-66
2024/01/23 08:12:50;;;;;;;;;;;;;;;;;;5072108;28;19931;-66
2024/01/23 08:15:17;;;;;;;;;;;;;;;;;;5071983;28;19924;-66
2024/01/23 08:17:43;;;;;;;;;;;;;;;;;;5071418;28;20733;-66
2024/01/23 08:20:09;;;;;;;;;;;;;;;;;;5063560;28;19933;-66
2024/01/23 08:22:35;;;;;;;;;;;;;;;;;;5049485;28;19920;-64
2024/01/23 08:25:01;;;;;;;;;;;;;;;;;;5073751;28;19920;-65
2024/01/23 08:27:27;;;;;;;;;;;;;;;;;;5072291;28;20446;-66
2024/01/23 08:29:53;;;;;;;;;;;;;;;;;;5074290;28;20007;-65
2024/01/23 08:32:19;;;;;;;;;;;;;;;;;;5053904;28;19946;-66
2024/01/23 08:34:45;;;;;;;;;;;;;;;;;;5073405;28;19921;-65
2024/01/23 08:37:11;;;;;;;;;;;;;;;;;;5067803;28;19931;-67
2024/01/23 08:39:37;;;;;;;;;;;;;;;;;;5068771;28;19924;-67
2024/01/23 08:42:03;;;;;;;;;;;;;;;;;;5070278;28;20274;-67
2024/01/23 08:44:29;;;;;;;;;;;;;;;;;;5065654;28;19927;-66
2024/01/23 08:46:55;;;;;;;;;;;;;;;;;;5071109;28;20374;-67
2024/01/23 08:49:21;;;;;;;;;;;;;;;;;;5066999;28;19920;-65
2024/01/23 08:51:47;;;;;;;;;;;;;;;;;;5063838;28;20006;-65
2024/01/23 08:54:18;;;;;;;;;;;;;;;;;;5065597;28;20003;-65
2024/01/23 08:56:44;;;;;;;;;;;;;;;;;;5056436;28;19932;-65
2024/01/23 08:59:10;;;;;;;;;;;;;;;;;;5069372;28;20298;-65
2024/01/23 09:01:36;;;;;;;;;;;;;;;;;;5070770;28;19931;-65
2024/01/23 09:04:02;;;;;;;;;;;;;;;;;;5058983;28;19921;-65
2024/01/23 09:06:28;;;;;;;;;;;;;;;;;;5071344;28;19935;-68
2024/01/23 09:08:54;;;;;;;;;;;;;;;;;;5062351;28;20292;-67
2024/01/23 09:11:20;;;;;;;;;;;;;;;;;;5052607;28;20035;-67
2024/01/23 09:13:47;;;;;;;;;;;;;;;;;;5060915;28;20031;-67
2024/01/23 09:16:13;;;;;;;;;;;;;;;;;;5048211;28;19946;-68
2024/01/23 09:18:40;;;;;;;;;;;;;;;;;;5051889;28;20029;-68
2024/01/23 09:21:06;;;;;;;;;;;;;;;;;;5067842;28;19928;-68
2024/01/23 09:23:32;;;;;;;;;;;;;;;;;;5067218;28;20684;-68
2024/01/23 09:25:58;;;;;;;;;;;;;;;;;;5067247;28;19929;-68
2024/01/23 09:28:24;;;;;;;;;;;;;;;;;;5071087;28;19925;-68
2024/01/23 09:30:50;;;;;;;;;;;;;;;;;;5053906;28;19920;-69
2024/01/23 09:33:15;;;;;;;;;;;;;;;;;;5069111;28;19920;-68
2024/01/23 09:35:41;;;;;;;;;;;;;;;;;;5067983;28;19920;-68
2024/01/23 09:38:07;;;;;;;;;;;;;;;;;;5052542;28;19947;-68
2024/01/23 09:40:33;;;;;;;;;;;;;;;;;;5052019;28;19920;-68
2024/01/23 09:42:59;;;;;;;;;;;;;;;;;;5047932;28;19935;-68
2024/01/23 09:45:25;;;;;;;;;;;;;;;;;;5060169;28;19925;-68
2024/01/23 09:47:51;;;;;;;;;;;;;;;;;;5051601;28;19935;-68
2024/01/23 09:50:20;;;;;;;;;;;;;;;;;;5069350;28;19920;-68
2024/01/23 09:52:46;;;;;;;;;;;;;;;;;;5074895;28;19973;-68
2024/01/23 09:55:12;;;;;;;;;;;;;;;;;;5054817;28;20042;-68
2024/01/23 09:57:37;;;;;;;;;;;;;;;;;;5055212;28;20022;-68
2024/01/23 10:00:06;;;;;;;;;;;;;;;;;;5054150;28;19921;-68
2024/01/23 10:02:32;;;;;;;;;;;;;;;;;;5056968;28;19927;-69
2024/01/23 10:04:58;;;;;;;;;;;;;;;;;;5074023;28;19920;-67
2024/01/23 10:07:24;;;;;;;;;;;;;;;;;;5075084;28;19925;-68
2024/01/23 10:09:50;;;;;;;;;;;;;;;;;;5074368;28;19990;-68
2024/01/23 10:12:16;;;;;;;;;;;;;;;;;;5076542;22;20401;-68
2024/01/23 10:14:43;;;;;;;;;;;;;;;;;;5068998;28;19929;-68
2024/01/23 10:17:09;;;;;;;;;;;;;;;;;;5064771;28;19990;-68
2024/01/23 10:19:35;;;;;;;;;;;;;;;;;;5066525;28;20381;-68
2024/01/23 10:22:01;;;;;;;;;;;;;;;;;;5068343;28;19928;-68
2024/01/23 10:24:27;;;;;;;;;;;;;;;;;;5046120;28;19928;-68
2024/01/23 10:26:53;;;;;;;;;;;;;;;;;;5069668;28;20084;-68
2024/01/23 10:29:19;;;;;;;;;;;;;;;;;;5070172;28;19924;-68
2024/01/23 10:31:45;;;;;;;;;;;;;;;;;;5076631;28;19924;-68
2024/01/23 10:34:12;;;;;;;;;;;;;;;;;;5057624;28;19934;-68
2024/01/23 10:36:38;;;;;;;;;;;;;;;;;;5066064;28;19928;-68
2024/01/23 10:39:04;;;;;;;;;;;;;;;;;;5066821;28;19954;-68
2024/01/23 10:41:30;;;;;;;;;;;;;;;;;;5046045;28;19928;-68
2024/01/23 10:43:56;;;;;;;;;;;;;;;;;;5063007;28;20062;-67
2024/01/23 10:46:22;;;;;;;;;;;;;;;;;;5063836;28;19925;-67
2024/01/23 10:48:47;;;;;;;;;;;;;;;;;;5067631;28;19940;-68
2024/01/23 10:51:13;;;;;;;;;;;;;;;;;;5065519;28;19929;-68
2024/01/23 10:53:39;;;;;;;;;;;;;;;;;;5073602;28;20386;-68
2024/01/23 10:56:05;;;;;;;;;;;;;;;;;;5072137;28;19925;-68
2024/01/23 10:58:31;;;;;;;;;;;;;;;;;;5058110;28;20019;-68
2024/01/23 11:00:58;;;;;;;;;;;;;;;;;;5074186;28;20007;-68
2024/01/23 11:03:24;;;;;;;;;;;;;;;;;;5071367;28;19943;-67
2024/01/23 11:05:50;;;;;;;;;;;;;;;;;;5049307;28;20301;-67
2024/01/23 11:08:15;;;;;;;;;;;;;;;;;;5068919;28;21338;-67
2024/01/23 11:10:41;;;;;;;;;;;;;;;;;;5063396;28;20035;-67
2024/01/23 11:13:07;;;;;;;;;;;;;;;;;;5062895;28;19977;-68
2024/01/23 11:15:33;;;;;;;;;;;;;;;;;;5064088;28;19931;-68
2024/01/23 11:17:59;;;;;;;;;;;;;;;;;;5046990;28;20292;-67
2024/01/23 11:20:25;;;;;;;;;;;;;;;;;;5048139;28;19927;-67
2024/01/23 11:22:51;;;;;;;;;;;;;;;;;;5050823;28;19928;-67
2024/01/23 11:25:17;;;;;;;;;;;;;;;;;;5067133;28;19924;-68
2024/01/23 11:27:43;;;;;;;;;;;;;;;;;;5065624;28;20340;-67
2024/01/23 11:30:09;;;;;;;;;;;;;;;;;;5050122;28;19943;-68
2024/01/23 11:32:35;;;;;;;;;;;;;;;;;;5051046;28;19924;-68
2024/01/23 11:35:02;;;;;;;;;;;;;;;;;;5052755;28;19924;-68
2024/01/23 11:37:28;;;;;;;;;;;;;;;;;;5054677;28;19920;-68
2024/01/23 11:39:54;;;;;;;;;;;;;;;;;;5065975;28;19969;-66
2024/01/23 11:42:20;;;;;;;;;;;;;;;;;;5069351;28;19924;-67
2024/01/23 11:44:46;;;;;;;;;;;;;;;;;;5068653;28;19990;-67
2024/01/23 11:47:12;;;;;;;;;;;;;;;;;;5062261;28;19962;-67
2024/01/23 11:49:38;;;;;;;;;;;;;;;;;;5072725;28;20404;-67
2024/01/23 11:52:04;;;;;;;;;;;;;;;;;;5065119;28;19928;-66
2024/01/23 11:54:30;;;;;;;;;;;;;;;;;;5067031;28;19928;-66
2024/01/23 11:56:56;;;;;;;;;;;;;;;;;;5070693;28;19953;-66
2024/01/23 11:59:22;;;;;;;;;;;;;;;;;;5067481;28;19967;-66
2024/01/23 12:01:48;;;;;;;;;;;;;;;;;;5067102;28;19976;-66
2024/01/23 12:04:13;;;;;;;;;;;;;;;;;;5072856;28;19928;-66
2024/01/23 12:06:39;;;;;;;;;;;;;;;;;;5065215;28;19924;-66
2024/01/23 12:09:06;;;;;;;;;;;;;;;;;;5063752;28;19977;-66
2024/01/23 12:11:33;;;;;;;;;;;;;;;;;;5068074;28;19932;-67
2024/01/23 12:13:59;;;;;;;;;;;;;;;;;;5061451;28;20207;-67
2024/01/23 12:16:25;;;;;;;;;;;;;;;;;;5071819;28;19943;-67
2024/01/23 12:18:51;;;;;;;;;;;;;;;;;;5069976;28;19935;-67
2024/01/23 12:21:17;;;;;;;;;;;;;;;;;;5048159;28;20546;-67
2024/01/23 12:23:43;;;;;;;;;;;;;;;;;;5052606;28;19927;-68
2024/01/23 12:26:09;;;;;;;;;;;;;;;;;;5069056;28;19932;-67
2024/01/23 12:28:35;;;;;;;;;;;;;;;;;;5061785;28;20010;-67
2024/01/23 12:31:01;;;;;;;;;;;;;;;;;;5052257;28;19929;-68
2024/01/23 12:33:27;;;;;;;;;;;;;;;;;;5071809;28;20290;-67
2024/01/23 12:35:53;;;;;;;;;;;;;;;;;;5068061;28;19924;-67
2024/01/23 12:38:19;;;;;;;;;;;;;;;;;;5072075;28;20374;-67
2024/01/23 12:40:45;;;;;;;;;;;;;;;;;;5070405;28;19920;-68
2024/01/23 12:43:11;;;;;;;;;;;;;;;;;;5067045;28;20280;-68
2024/01/23 12:45:37;;;;;;;;;;;;;;;;;;5065770;28;19930;-68
2024/01/23 12:48:02;;;;;;;;;;;;;;;;;;5064139;28;19924;-68
2024/01/23 12:50:28;;;;;;;;;;;;;;;;;;5065642;28;20004;-68
2024/01/23 12:52:56;;;;;;;;;;;;;;;;;;5068219;28;20374;-68
2024/01/23 12:55:22;;;;;;;;;;;;;;;;;;5064622;28;19928;-68
2024/01/23 12:57:48;;;;;;;;;;;;;;;;;;5068471;28;20297;-68
2024/01/23 13:00:14;;;;;;;;;;;;;;;;;;5071761;28;19977;-68
2024/01/23 13:02:40;;;;;;;;;;;;;;;;;;5067153;28;19947;-68
2024/01/23 13:05:06;;;;;;;;;;;;;;;;;;5058862;28;20528;-68
2024/01/23 13:07:32;;;;;;;;;;;;;;;;;;5071878;28;19924;-67
2024/01/23 13:09:58;;;;;;;;;;;;;;;;;;5048080;28;20654;-67
2024/01/23 13:12:24;;;;;;;;;;;;;;;;;;5069902;28;20362;-67
2024/01/23 13:14:50;;;;;;;;;;;;;;;;;;5068598;28;19943;-67
2024/01/23 13:17:16;;;;;;;;;;;;;;;;;;5067717;28;19932;-67
2024/01/23 13:19:42;;;;;;;;;;;;;;;;;;5049861;28;19974;-67
2024/01/23 13:22:08;;;;;;;;;;;;;;;;;;5070427;28;19921;-67
2024/01/23 13:24:34;;;;;;;;;;;;;;;;;;5071826;28;19924;-68
2024/01/23 13:27:06;;;;;;;;;;;;;;;;;;5069115;28;19931;-68
2024/01/23 13:29:32;;;;;;;;;;;;;;;;;;5069504;28;20035;-68
2024/01/23 13:31:58;;;;;;;;;;;;;;;;;;5071682;28;19920;-68
2024/01/23 13:34:23;;;;;;;;;;;;;;;;;;5064416;28;19958;-68
2024/01/23 13:36:49;;;;;;;;;;;;;;;;;;5067830;28;20370;-68
2024/01/23 13:39:18;;;;;;;;;;;;;;;;;;5068841;28;19924;-67
2024/01/23 13:41:44;;;;;;;;;;;;;;;;;;5051068;28;19999;-67
2024/01/23 13:44:11;;;;;;;;;;;;;;;;;;5070980;28;20020;-67
2024/01/23 13:46:37;;;;;;;;;;;;;;;;;;5067764;28;19927;-67
2024/01/23 13:49:03;;;;;;;;;;;;;;;;;;5044589;28;19925;-67
2024/01/23 13:51:29;;;;;;;;;;;;;;;;;;5068103;28;19932;-67
2024/01/23 13:53:55;;;;;;;;;;;;;;;;;;5068021;28;19921;-67
2024/01/23 13:56:22;;;;;;;;;;;;;;;;;;5064980;28;19932;-67
2024/01/23 13:58:48;;;;;;;;;;;;;;;;;;5065442;28;19947;-67
2024/01/23 14:01:13;;;;;;;;;;;;;;;;;;5071005;28;20369;-67
2024/01/23 14:03:39;;;;;;;;;;;;;;;;;;5043988;28;19932;-66
2024/01/23 14:06:06;;;;;;;;;;;;;;;;;;5066851;28;19935;-67
2024/01/23 14:08:33;;;;;;;;;;;;;;;;;;5068231;28;20378;-66
2024/01/23 14:10:59;;;;;;;;;;;;;;;;;;5062335;28;19941;-67
2024/01/23 14:13:25;;;;;;;;;;;;;;;;;;5068811;28;19928;-67
2024/01/23 14:15:51;;;;;;;;;;;;;;;;;;5062213;28;20066;-67
2024/01/23 14:18:17;;;;;;;;;;;;;;;;;;5063450;28;20054;-67
2024/01/23 14:20:43;;;;;;;;;;;;;;;;;;5068715;28;20393;-67
2024/01/23 14:23:09;;;;;;;;;;;;;;;;;;5052365;28;20019;-67
2024/01/23 14:25:35;;;;;;;;;;;;;;;;;;5045689;28;20007;-67
2024/01/23 14:28:01;;;;;;;;;;;;;;;;;;5067711;28;20361;-67
2024/01/23 14:30:26;;;;;;;;;;;;;;;;;;5045990;28;19940;-67
2024/01/23 14:32:52;;;;;;;;;;;;;;;;;;5046930;28;19924;-67
2024/01/23 14:35:19;;;;;;;;;;;;;;;;;;5070580;28;19920;-67
2024/01/23 14:37:45;;;;;;;;;;;;;;;;;;5061290;28;19955;-67
2024/01/23 14:40:12;;;;;;;;;;;;;;;;;;5069351;28;20376;-67
2024/01/23 14:42:38;;;;;;;;;;;;;;;;;;5066939;28;19960;-67
2024/01/23 14:45:04;;;;;;;;;;;;;;;;;;5063075;28;19973;-67
2024/01/23 14:47:30;;;;;;;;;;;;;;;;;;5065435;28;19920;-67
2024/01/23 14:49:56;;;;;;;;;;;;;;;;;;5069774;28;19951;-67
2024/01/23 14:52:22;;;;;;;;;;;;;;;;;;5063694;28;20306;-67
2024/01/23 14:54:48;;;;;;;;;;;;;;;;;;5067820;28;19924;-67
2024/01/23 14:57:14;;;;;;;;;;;;;;;;;;5070699;28;19920;-67
2024/01/23 14:59:40;;;;;;;;;;;;;;;;;;5071093;28;19920;-67
2024/01/23 15:02:05;;;;;;;;;;;;;;;;;;5067504;28;19924;-68
2024/01/23 15:04:31;;;;;;;;;;;;;;;;;;5048478;28;19929;-67
2024/01/23 15:06:59;;;;;;;;;;;;;;;;;;5070257;28;19932;-67
2024/01/23 15:09:25;;;;;;;;;;;;;;;;;;5074205;28;19935;-67
2024/01/23 15:11:51;;;;;;;;;;;;;;;;;;5074502;28;19928;-67
2024/01/23 15:14:17;;;;;;;;;;;;;;;;;;5074017;28;19950;-67
2024/01/23 15:16:43;;;;;;;;;;;;;;;;;;5069884;28;19930;-68
2024/01/23 15:19:12;;;;;;;;;;;;;;;;;;5064717;28;19924;-66
2024/01/23 15:21:40;;;;;;;;;;;;;;;;;;5070279;28;20698;-67
2024/01/23 15:24:05;;;;;;;;;;;;;;;;;;5068055;28;19974;-67
2024/01/23 15:26:31;;;;;;;;;;;;;;;;;;5058610;28;19928;-67
2024/01/23 15:28:59;;;;;;;;;;;;;;;;;;5069690;28;19928;-67
2024/01/23 15:31:25;;;;;;;;;;;;;;;;;;5071336;28;20316;-67
2024/01/23 15:33:52;;;;;;;;;;;;;;;;;;5062878;28;20473;-67
2024/01/23 15:36:17;;;;;;;;;;;;;;;;;;5069250;28;19920;-67
2024/01/23 15:38:43;;;;;;;;;;;;;;;;;;5070179;28;19924;-67
2024/01/23 15:41:09;;;;;;;;;;;;;;;;;;5062325;28;19928;-67
2024/01/23 15:43:35;;;;;;;;;;;;;;;;;;5058838;28;19983;-67
2024/01/23 15:46:01;;;;;;;;;;;;;;;;;;5069054;28;19978;-67
2024/01/23 15:48:27;;;;;;;;;;;;;;;;;;5062924;28;20437;-67
2024/01/23 15:50:53;;;;;;;;;;;;;;;;;;5064889;28;19970;-67
2024/01/23 15:53:19;;;;;;;;;;;;;;;;;;5034208;28;19929;-67
2024/01/23 15:55:45;;;;;;;;;;;;;;;;;;5061938;28;20350;-67
2024/01/23 15:58:14;;;;;;;;;;;;;;;;;;5051729;28;19924;-67
2024/01/23 16:00:40;;;;;;;;;;;;;;;;;;5063629;28;19958;-67
2024/01/23 16:03:06;;;;;;;;;;;;;;;;;;5055163;28;19924;-67
2024/01/23 16:05:32;;;;;;;;;;;;;;;;;;5045994;28;19924;-67
2024/01/23 16:07:58;;;;;;;;;;;;;;;;;;5069724;28;19924;-68
2024/01/23 16:10:25;;;;;;;;;;;;;;;;;;5068186;28;19974;-68
2024/01/23 16:12:51;;;;;;;;;;;;;;;;;;5058135;28;20031;-67
2024/01/23 16:15:17;;;;;;;;;;;;;;;;;;5070209;28;20011;-67
2024/01/23 16:17:43;;;;;;;;;;;;;;;;;;5041934;28;20008;-67
2024/01/23 16:20:09;;;;;;;;;;;;;;;;;;5065262;28;19927;-67
2024/01/23 16:22:35;;;;;;;;;;;;;;;;;;5047515;28;19931;-67
2024/01/23 16:25:01;;;;;;;;;;;;;;;;;;5067059;28;19935;-68
2024/01/23 16:27:27;;;;;;;;;;;;;;;;;;5072167;28;19928;-67
2024/01/23 16:29:53;;;;;;;;;;;;;;;;;;5069423;28;19924;-67
2024/01/23 16:32:19;;;;;;;;;;;;;;;;;;5068428;28;19940;-67
2024/01/23 16:34:45;;;;;;;;;;;;;;;;;;5070458;28;19931;-67
2024/01/23 16:37:11;;;;;;;;;;;;;;;;;;5064618;28;19929;-67